sensor_id;sensor_type;location;lat;lon;timestamp;temperature;humidity
37788;DHT22;23627;53.302;-6.362;2022-08-14T00:01:41;19.40;99.90
37788;DHT22;23627;53.302;-6.362;2022-08-14T00:04:07;19.40;99.90
37788;DHT22;23627;53.302;-6.362;2022-08-14T00:06:32;19.30;99.90
37788;DHT22;23627;53.302;-6.362;2022-08-14T00:08:58;19.30;99.90
37788;DHT22;23627;53.302;-6.362;2022-08-14T00:11:24;19.30;99.90
37788;DHT22;23627;53.302;-6.362;2022-08-14T00:13:50;19.30;99.90
37788;DHT22;23627;53.302;-6.362;2022-08-14T00:16:16;19.30;99.90
37788;DHT22;23627;53.302;-6.362;2022-08-14T00:18:41;19.30;99.90
37788;DHT22;23627;53.302;-6.362;2022-08-14T00:21:08;19.30;99.90
37788;DHT22;23627;53.302;-6.362;2022-08-14T00:23:33;19.30;99.90
37788;DHT22;23627;53.302;-6.362;2022-08-14T00:25:59;19.30;99.90
37788;DHT22;23627;53.302;-6.362;2022-08-14T00:28:25;19.20;99.90
37788;DHT22;23627;53.302;-6.362;2022-08-14T00:30:54;19.30;99.90
37788;DHT22;23627;53.302;-6.362;2022-08-14T00:33:26;19.20;99.90
37788;DHT22;23627;53.302;-6.362;2022-08-14T00:35:52;19.30;99.90
37788;DHT22;23627;53.302;-6.362;2022-08-14T00:38:19;19.20;99.90
37788;DHT22;23627;53.302;-6.362;2022-08-14T00:40:45;19.20;99.90
37788;DHT22;23627;53.302;-6.362;2022-08-14T00:43:11;19.20;99.90
37788;DHT22;23627;53.302;-6.362;2022-08-14T00:45:37;19.10;99.90
37788;DHT22;23627;53.302;-6.362;2022-08-14T00:48:03;19.10;99.90
37788;DHT22;23627;53.302;-6.362;2022-08-14T00:50:29;19.20;99.90
37788;DHT22;23627;53.302;-6.362;2022-08-14T00:52:57;19.10;99.90
37788;DHT22;23627;53.302;-6.362;2022-08-14T00:55:28;19.10;99.90
37788;DHT22;23627;53.302;-6.362;2022-08-14T00:57:54;19.20;99.90
37788;DHT22;23627;53.302;-6.362;2022-08-14T01:00:39;19.10;99.90
37788;DHT22;23627;53.302;-6.362;2022-08-14T01:03:06;19.10;99.90
37788;DHT22;23627;53.302;-6.362;2022-08-14T01:05:33;19.10;99.90
37788;DHT22;23627;53.302;-6.362;2022-08-14T01:08:00;19.10;99.90
37788;DHT22;23627;53.302;-6.362;2022-08-14T01:10:28;19.10;99.90
37788;DHT22;23627;53.302;-6.362;2022-08-14T01:13:21;19.10;99.90
37788;DHT22;23627;53.302;-6.362;2022-08-14T01:15:49;19.10;99.90
37788;DHT22;23627;53.302;-6.362;2022-08-14T01:18:16;19.10;99.90
37788;DHT22;23627;53.302;-6.362;2022-08-14T01:21:00;19.10;99.90
37788;DHT22;23627;53.302;-6.362;2022-08-14T01:23:33;19.00;99.90
37788;DHT22;23627;53.302;-6.362;2022-08-14T01:25:58;18.90;99.90
37788;DHT22;23627;53.302;-6.362;2022-08-14T01:28:25;18.90;99.90
37788;DHT22;23627;53.302;-6.362;2022-08-14T01:30:52;18.80;99.90
37788;DHT22;23627;53.302;-6.362;2022-08-14T01:33:25;18.80;99.90
37788;DHT22;23627;53.302;-6.362;2022-08-14T01:35:58;18.80;99.90
37788;DHT22;23627;53.302;-6.362;2022-08-14T01:38:27;18.70;99.90
37788;DHT22;23627;53.302;-6.362;2022-08-14T01:41:10;18.70;99.90
37788;DHT22;23627;53.302;-6.362;2022-08-14T01:44:07;18.60;99.90
37788;DHT22;23627;53.302;-6.362;2022-08-14T01:46:36;18.60;99.90
37788;DHT22;23627;53.302;-6.362;2022-08-14T01:49:05;18.60;99.90
37788;DHT22;23627;53.302;-6.362;2022-08-14T01:51:32;18.60;99.90
37788;DHT22;23627;53.302;-6.362;2022-08-14T01:54:02;18.50;99.90
37788;DHT22;23627;53.302;-6.362;2022-08-14T01:56:32;18.60;99.90
37788;DHT22;23627;53.302;-6.362;2022-08-14T01:59:20;18.60;99.90
37788;DHT22;23627;53.302;-6.362;2022-08-14T02:01:51;18.50;99.90
37788;DHT22;23627;53.302;-6.362;2022-08-14T02:04:18;18.50;99.90
37788;DHT22;23627;53.302;-6.362;2022-08-14T02:06:48;18.50;99.90
37788;DHT22;23627;53.302;-6.362;2022-08-14T02:09:16;18.50;99.90
37788;DHT22;23627;53.302;-6.362;2022-08-14T02:11:42;18.50;99.90
37788;DHT22;23627;53.302;-6.362;2022-08-14T02:14:11;18.60;99.90
37788;DHT22;23627;53.302;-6.362;2022-08-14T02:16:43;18.60;99.90
37788;DHT22;23627;53.302;-6.362;2022-08-14T02:19:21;18.60;99.90
37788;DHT22;23627;53.302;-6.362;2022-08-14T02:21:49;18.60;99.90
37788;DHT22;23627;53.302;-6.362;2022-08-14T02:24:17;18.50;99.90
37788;DHT22;23627;53.302;-6.362;2022-08-14T02:26:45;18.50;99.90
37788;DHT22;23627;53.302;-6.362;2022-08-14T02:29:17;18.50;99.90
37788;DHT22;23627;53.302;-6.362;2022-08-14T02:31:45;18.40;99.90
37788;DHT22;23627;53.302;-6.362;2022-08-14T02:34:15;18.40;99.90
37788;DHT22;23627;53.302;-6.362;2022-08-14T02:36:45;18.40;99.90
37788;DHT22;23627;53.302;-6.362;2022-08-14T02:39:12;18.40;99.90
37788;DHT22;23627;53.302;-6.362;2022-08-14T02:41:38;18.40;99.90
37788;DHT22;23627;53.302;-6.362;2022-08-14T02:44:06;18.40;99.90
37788;DHT22;23627;53.302;-6.362;2022-08-14T02:46:32;18.30;99.90
37788;DHT22;23627;53.302;-6.362;2022-08-14T02:48:58;18.30;99.90
37788;DHT22;23627;53.302;-6.362;2022-08-14T02:51:25;18.20;99.90
37788;DHT22;23627;53.302;-6.362;2022-08-14T02:53:51;18.10;99.90
37788;DHT22;23627;53.302;-6.362;2022-08-14T02:56:19;18.10;99.90
37788;DHT22;23627;53.302;-6.362;2022-08-14T02:58:50;18.10;99.90
37788;DHT22;23627;53.302;-6.362;2022-08-14T03:01:18;18.10;99.90
37788;DHT22;23627;53.302;-6.362;2022-08-14T03:03:46;18.10;99.90
37788;DHT22;23627;53.302;-6.362;2022-08-14T03:06:14;18.00;99.90
37788;DHT22;23627;53.302;-6.362;2022-08-14T03:08:41;18.00;99.90
37788;DHT22;23627;53.302;-6.362;2022-08-14T03:11:09;17.90;99.90
37788;DHT22;23627;53.302;-6.362;2022-08-14T03:13:38;17.90;99.90
37788;DHT22;23627;53.302;-6.362;2022-08-14T03:16:10;17.90;99.90
37788;DHT22;23627;53.302;-6.362;2022-08-14T03:18:43;18.00;99.90
37788;DHT22;23627;53.302;-6.362;2022-08-14T03:21:11;18.00;99.90
37788;DHT22;23627;53.302;-6.362;2022-08-14T03:23:49;18.00;99.90
37788;DHT22;23627;53.302;-6.362;2022-08-14T03:26:19;18.00;99.90
37788;DHT22;23627;53.302;-6.362;2022-08-14T03:28:50;18.00;99.90
37788;DHT22;23627;53.302;-6.362;2022-08-14T03:31:17;18.00;99.90
37788;DHT22;23627;53.302;-6.362;2022-08-14T03:33:47;17.90;99.90
37788;DHT22;23627;53.302;-6.362;2022-08-14T03:36:14;17.80;99.90
37788;DHT22;23627;53.302;-6.362;2022-08-14T03:38:45;17.80;99.90
37788;DHT22;23627;53.302;-6.362;2022-08-14T03:41:14;17.80;99.90
37788;DHT22;23627;53.302;-6.362;2022-08-14T03:43:42;17.70;99.90
37788;DHT22;23627;53.302;-6.362;2022-08-14T03:46:09;17.70;99.90
37788;DHT22;23627;53.302;-6.362;2022-08-14T03:48:36;17.60;99.90
37788;DHT22;23627;53.302;-6.362;2022-08-14T03:51:02;17.60;99.90
37788;DHT22;23627;53.302;-6.362;2022-08-14T03:53:28;17.60;99.90
37788;DHT22;23627;53.302;-6.362;2022-08-14T03:55:54;17.50;99.90
37788;DHT22;23627;53.302;-6.362;2022-08-14T03:58:23;17.50;99.90
37788;DHT22;23627;53.302;-6.362;2022-08-14T04:00:48;17.50;99.90
37788;DHT22;23627;53.302;-6.362;2022-08-14T04:03:15;17.50;99.90
37788;DHT22;23627;53.302;-6.362;2022-08-14T04:05:41;17.50;99.90
37788;DHT22;23627;53.302;-6.362;2022-08-14T04:08:10;17.60;99.90
37788;DHT22;23627;53.302;-6.362;2022-08-14T04:10:36;17.60;99.90
37788;DHT22;23627;53.302;-6.362;2022-08-14T04:13:03;17.60;99.90
37788;DHT22;23627;53.302;-6.362;2022-08-14T04:15:34;17.50;99.90
37788;DHT22;23627;53.302;-6.362;2022-08-14T04:18:06;17.60;99.90
37788;DHT22;23627;53.302;-6.362;2022-08-14T04:20:36;17.60;99.90
37788;DHT22;23627;53.302;-6.362;2022-08-14T04:23:02;17.60;99.90
37788;DHT22;23627;53.302;-6.362;2022-08-14T04:25:29;17.60;99.90
37788;DHT22;23627;53.302;-6.362;2022-08-14T04:27:59;17.50;99.90
37788;DHT22;23627;53.302;-6.362;2022-08-14T04:30:25;17.60;99.90
37788;DHT22;23627;53.302;-6.362;2022-08-14T04:32:55;17.60;99.90
37788;DHT22;23627;53.302;-6.362;2022-08-14T04:35:21;17.60;99.90
37788;DHT22;23627;53.302;-6.362;2022-08-14T04:37:47;17.60;99.90
37788;DHT22;23627;53.302;-6.362;2022-08-14T04:40:31;17.60;99.90
37788;DHT22;23627;53.302;-6.362;2022-08-14T04:43:16;17.60;99.90
37788;DHT22;23627;53.302;-6.362;2022-08-14T04:46:03;17.60;99.90
37788;DHT22;23627;53.302;-6.362;2022-08-14T04:48:29;17.50;99.90
37788;DHT22;23627;53.302;-6.362;2022-08-14T04:50:54;17.50;99.90
37788;DHT22;23627;53.302;-6.362;2022-08-14T04:53:26;17.50;99.90
37788;DHT22;23627;53.302;-6.362;2022-08-14T04:55:54;17.50;99.90
37788;DHT22;23627;53.302;-6.362;2022-08-14T04:58:23;17.40;99.90
37788;DHT22;23627;53.302;-6.362;2022-08-14T05:00:50;17.40;99.90
37788;DHT22;23627;53.302;-6.362;2022-08-14T05:03:27;17.40;99.90
37788;DHT22;23627;53.302;-6.362;2022-08-14T05:05:56;17.40;99.90
37788;DHT22;23627;53.302;-6.362;2022-08-14T05:08:23;17.40;99.90
37788;DHT22;23627;53.302;-6.362;2022-08-14T05:10:50;17.30;99.90
37788;DHT22;23627;53.302;-6.362;2022-08-14T05:13:18;17.30;99.90
37788;DHT22;23627;53.302;-6.362;2022-08-14T05:15:44;17.40;99.90
37788;DHT22;23627;53.302;-6.362;2022-08-14T05:18:12;17.40;99.90
37788;DHT22;23627;53.302;-6.362;2022-08-14T05:20:43;17.40;99.90
37788;DHT22;23627;53.302;-6.362;2022-08-14T05:23:16;17.40;99.90
37788;DHT22;23627;53.302;-6.362;2022-08-14T05:25:43;17.50;99.90
37788;DHT22;23627;53.302;-6.362;2022-08-14T05:28:13;17.50;99.90
37788;DHT22;23627;53.302;-6.362;2022-08-14T05:30:44;17.50;99.90
37788;DHT22;23627;53.302;-6.362;2022-08-14T05:33:14;17.50;99.90
37788;DHT22;23627;53.302;-6.362;2022-08-14T05:35:41;17.50;99.90
37788;DHT22;23627;53.302;-6.362;2022-08-14T05:38:10;17.60;99.90
37788;DHT22;23627;53.302;-6.362;2022-08-14T05:40:37;17.60;99.90
37788;DHT22;23627;53.302;-6.362;2022-08-14T05:43:03;17.60;99.90
37788;DHT22;23627;53.302;-6.362;2022-08-14T05:45:29;17.70;99.90
37788;DHT22;23627;53.302;-6.362;2022-08-14T05:47:55;17.70;99.90
37788;DHT22;23627;53.302;-6.362;2022-08-14T05:50:20;17.70;99.90
37788;DHT22;23627;53.302;-6.362;2022-08-14T05:52:48;17.70;99.90
37788;DHT22;23627;53.302;-6.362;2022-08-14T05:55:19;17.70;99.90
37788;DHT22;23627;53.302;-6.362;2022-08-14T05:57:57;17.70;99.90
37788;DHT22;23627;53.302;-6.362;2022-08-14T06:00:26;17.80;99.90
37788;DHT22;23627;53.302;-6.362;2022-08-14T06:02:52;17.80;99.90
37788;DHT22;23627;53.302;-6.362;2022-08-14T06:05:21;17.80;99.90
37788;DHT22;23627;53.302;-6.362;2022-08-14T06:07:47;17.80;99.90
37788;DHT22;23627;53.302;-6.362;2022-08-14T06:10:12;17.90;99.90
37788;DHT22;23627;53.302;-6.362;2022-08-14T06:12:38;18.00;99.90
37788;DHT22;23627;53.302;-6.362;2022-08-14T06:15:06;18.00;99.90
37788;DHT22;23627;53.302;-6.362;2022-08-14T06:17:42;18.00;99.90
37788;DHT22;23627;53.302;-6.362;2022-08-14T06:20:09;18.10;99.90
37788;DHT22;23627;53.302;-6.362;2022-08-14T06:22:34;18.20;99.90
37788;DHT22;23627;53.302;-6.362;2022-08-14T06:25:00;18.20;99.90
37788;DHT22;23627;53.302;-6.362;2022-08-14T06:27:26;18.30;99.90
37788;DHT22;23627;53.302;-6.362;2022-08-14T06:29:52;18.30;99.90
37788;DHT22;23627;53.302;-6.362;2022-08-14T06:32:17;18.30;99.90
37788;DHT22;23627;53.302;-6.362;2022-08-14T06:34:43;18.40;99.90
37788;DHT22;23627;53.302;-6.362;2022-08-14T06:37:09;18.50;99.90
37788;DHT22;23627;53.302;-6.362;2022-08-14T06:39:35;18.60;99.90
37788;DHT22;23627;53.302;-6.362;2022-08-14T06:42:00;18.70;99.90
37788;DHT22;23627;53.302;-6.362;2022-08-14T06:44:27;18.80;99.90
37788;DHT22;23627;53.302;-6.362;2022-08-14T06:46:53;18.80;99.90
37788;DHT22;23627;53.302;-6.362;2022-08-14T06:49:19;18.90;99.90
37788;DHT22;23627;53.302;-6.362;2022-08-14T06:51:45;19.00;99.90
37788;DHT22;23627;53.302;-6.362;2022-08-14T06:54:12;19.10;99.90
37788;DHT22;23627;53.302;-6.362;2022-08-14T06:56:38;19.10;99.90
37788;DHT22;23627;53.302;-6.362;2022-08-14T06:59:04;19.10;99.90
37788;DHT22;23627;53.302;-6.362;2022-08-14T07:01:30;19.10;99.90
37788;DHT22;23627;53.302;-6.362;2022-08-14T07:04:14;19.20;99.90
37788;DHT22;23627;53.302;-6.362;2022-08-14T07:06:59;19.30;99.90
37788;DHT22;23627;53.302;-6.362;2022-08-14T07:09:26;19.40;99.90
37788;DHT22;23627;53.302;-6.362;2022-08-14T07:11:52;19.50;99.90
37788;DHT22;23627;53.302;-6.362;2022-08-14T07:14:18;19.60;99.90
37788;DHT22;23627;53.302;-6.362;2022-08-14T07:16:44;19.70;99.90
37788;DHT22;23627;53.302;-6.362;2022-08-14T07:19:09;19.70;99.90
37788;DHT22;23627;53.302;-6.362;2022-08-14T07:21:35;19.70;99.90
37788;DHT22;23627;53.302;-6.362;2022-08-14T07:24:02;19.60;99.90
37788;DHT22;23627;53.302;-6.362;2022-08-14T07:26:28;19.70;99.90
37788;DHT22;23627;53.302;-6.362;2022-08-14T07:28:54;19.70;99.90
37788;DHT22;23627;53.302;-6.362;2022-08-14T07:31:20;19.70;99.90
37788;DHT22;23627;53.302;-6.362;2022-08-14T07:33:47;19.70;99.90
37788;DHT22;23627;53.302;-6.362;2022-08-14T07:36:16;19.80;99.90
37788;DHT22;23627;53.302;-6.362;2022-08-14T07:38:43;19.80;99.90
37788;DHT22;23627;53.302;-6.362;2022-08-14T07:41:10;19.90;99.90
37788;DHT22;23627;53.302;-6.362;2022-08-14T07:43:37;19.90;99.90
37788;DHT22;23627;53.302;-6.362;2022-08-14T07:46:04;19.90;99.90
37788;DHT22;23627;53.302;-6.362;2022-08-14T07:48:30;19.90;99.90
37788;DHT22;23627;53.302;-6.362;2022-08-14T07:50:57;20.00;99.90
37788;DHT22;23627;53.302;-6.362;2022-08-14T07:53:23;20.10;99.90
37788;DHT22;23627;53.302;-6.362;2022-08-14T07:55:49;20.10;99.90
37788;DHT22;23627;53.302;-6.362;2022-08-14T07:58:15;20.20;99.90
37788;DHT22;23627;53.302;-6.362;2022-08-14T08:00:42;20.20;99.90
37788;DHT22;23627;53.302;-6.362;2022-08-14T08:03:09;20.20;99.90
37788;DHT22;23627;53.302;-6.362;2022-08-14T08:05:36;20.20;99.90
37788;DHT22;23627;53.302;-6.362;2022-08-14T08:08:04;20.20;99.90
37788;DHT22;23627;53.302;-6.362;2022-08-14T08:10:30;20.40;99.90
37788;DHT22;23627;53.302;-6.362;2022-08-14T08:13:08;20.50;99.90
37788;DHT22;23627;53.302;-6.362;2022-08-14T08:15:47;20.60;99.90
37788;DHT22;23627;53.302;-6.362;2022-08-14T08:18:15;20.70;99.90
37788;DHT22;23627;53.302;-6.362;2022-08-14T08:20:47;20.80;99.90
37788;DHT22;23627;53.302;-6.362;2022-08-14T08:23:17;21.00;99.90
37788;DHT22;23627;53.302;-6.362;2022-08-14T08:25:45;21.10;99.90
37788;DHT22;23627;53.302;-6.362;2022-08-14T08:28:16;21.20;99.90
37788;DHT22;23627;53.302;-6.362;2022-08-14T08:30:51;21.40;99.90
37788;DHT22;23627;53.302;-6.362;2022-08-14T08:33:18;21.60;99.90
37788;DHT22;23627;53.302;-6.362;2022-08-14T08:35:48;21.60;99.90
37788;DHT22;23627;53.302;-6.362;2022-08-14T08:38:23;21.70;99.90
37788;DHT22;23627;53.302;-6.362;2022-08-14T08:40:55;21.70;99.90
37788;DHT22;23627;53.302;-6.362;2022-08-14T08:43:21;21.90;99.90
37788;DHT22;23627;53.302;-6.362;2022-08-14T08:48:28;22.20;99.90
37788;DHT22;23627;53.302;-6.362;2022-08-14T08:50:57;22.40;99.90
37788;DHT22;23627;53.302;-6.362;2022-08-14T08:53:32;22.60;99.90
37788;DHT22;23627;53.302;-6.362;2022-08-14T08:58:43;22.90;99.90
37788;DHT22;23627;53.302;-6.362;2022-08-14T09:01:08;23.10;99.90
37788;DHT22;23627;53.302;-6.362;2022-08-14T09:08:57;23.30;99.90
37788;DHT22;23627;53.302;-6.362;2022-08-14T09:11:23;23.30;99.90
37788;DHT22;23627;53.302;-6.362;2022-08-14T09:24:09;23.40;99.90
37788;DHT22;23627;53.302;-6.362;2022-08-14T09:26:37;23.40;99.90
37788;DHT22;23627;53.302;-6.362;2022-08-14T09:29:04;23.40;99.90
37788;DHT22;23627;53.302;-6.362;2022-08-14T09:31:32;23.30;99.90
37788;DHT22;23627;53.302;-6.362;2022-08-14T09:45:22;23.40;99.90
37788;DHT22;23627;53.302;-6.362;2022-08-14T09:48:14;23.40;99.90
37788;DHT22;23627;53.302;-6.362;2022-08-14T09:51:00;23.30;99.90
37788;DHT22;23627;53.302;-6.362;2022-08-14T09:53:42;23.30;99.90
37788;DHT22;23627;53.302;-6.362;2022-08-14T09:56:12;23.30;99.90
37788;DHT22;23627;53.302;-6.362;2022-08-14T09:58:45;23.30;99.90
37788;DHT22;23627;53.302;-6.362;2022-08-14T10:01:13;23.30;99.90
37788;DHT22;23627;53.302;-6.362;2022-08-14T10:03:48;23.50;99.90
37788;DHT22;23627;53.302;-6.362;2022-08-14T10:06:24;23.60;99.90
37788;DHT22;23627;53.302;-6.362;2022-08-14T10:11:28;23.90;99.90
37788;DHT22;23627;53.302;-6.362;2022-08-14T10:14:10;24.10;99.90
37788;DHT22;23627;53.302;-6.362;2022-08-14T10:16:41;24.20;99.90
37788;DHT22;23627;53.302;-6.362;2022-08-14T10:19:13;24.50;99.90
37788;DHT22;23627;53.302;-6.362;2022-08-14T10:21:55;24.60;99.90
37788;DHT22;23627;53.302;-6.362;2022-08-14T10:24:27;24.80;99.90
37788;DHT22;23627;53.302;-6.362;2022-08-14T10:26:55;24.80;99.90
37788;DHT22;23627;53.302;-6.362;2022-08-14T10:29:32;24.80;99.90
37788;DHT22;23627;53.302;-6.362;2022-08-14T10:32:00;24.80;99.90
37788;DHT22;23627;53.302;-6.362;2022-08-14T10:34:34;24.60;99.90
37788;DHT22;23627;53.302;-6.362;2022-08-14T10:37:12;24.60;99.90
37788;DHT22;23627;53.302;-6.362;2022-08-14T10:39:43;24.60;99.90
37788;DHT22;23627;53.302;-6.362;2022-08-14T10:42:14;24.60;99.90
37788;DHT22;23627;53.302;-6.362;2022-08-14T10:44:44;24.70;99.90
37788;DHT22;23627;53.302;-6.362;2022-08-14T10:47:14;24.80;99.90
37788;DHT22;23627;53.302;-6.362;2022-08-14T10:49:56;24.90;99.90
37788;DHT22;23627;53.302;-6.362;2022-08-14T10:52:25;24.90;99.90
37788;DHT22;23627;53.302;-6.362;2022-08-14T10:55:02;25.00;99.90
37788;DHT22;23627;53.302;-6.362;2022-08-14T10:57:32;25.00;99.90
37788;DHT22;23627;53.302;-6.362;2022-08-14T11:00:10;25.00;99.90
37788;DHT22;23627;53.302;-6.362;2022-08-14T11:02:40;25.10;99.90
37788;DHT22;23627;53.302;-6.362;2022-08-14T11:05:09;25.20;99.90
37788;DHT22;23627;53.302;-6.362;2022-08-14T11:07:59;25.20;99.90
37788;DHT22;23627;53.302;-6.362;2022-08-14T11:10:54;25.30;99.90
37788;DHT22;23627;53.302;-6.362;2022-08-14T11:13:28;25.40;99.90
37788;DHT22;23627;53.302;-6.362;2022-08-14T11:15:56;25.50;99.90
37788;DHT22;23627;53.302;-6.362;2022-08-14T11:18:25;25.60;99.90
37788;DHT22;23627;53.302;-6.362;2022-08-14T11:20:55;25.70;99.90
37788;DHT22;23627;53.302;-6.362;2022-08-14T11:23:31;25.80;99.90
37788;DHT22;23627;53.302;-6.362;2022-08-14T11:25:59;25.80;99.90
37788;DHT22;23627;53.302;-6.362;2022-08-14T11:28:27;25.90;99.90
37788;DHT22;23627;53.302;-6.362;2022-08-14T11:30:56;25.90;99.90
37788;DHT22;23627;53.302;-6.362;2022-08-14T11:33:29;25.90;99.90
37788;DHT22;23627;53.302;-6.362;2022-08-14T11:36:01;26.00;99.90
37788;DHT22;23627;53.302;-6.362;2022-08-14T11:38:34;26.10;99.90
37788;DHT22;23627;53.302;-6.362;2022-08-14T11:41:00;26.20;99.90
37788;DHT22;23627;53.302;-6.362;2022-08-14T11:43:26;26.20;99.90
37788;DHT22;23627;53.302;-6.362;2022-08-14T11:45:52;26.20;99.90
37788;DHT22;23627;53.302;-6.362;2022-08-14T11:50:46;26.10;99.90
37788;DHT22;23627;53.302;-6.362;2022-08-14T11:53:24;26.20;99.90
37788;DHT22;23627;53.302;-6.362;2022-08-14T11:56:04;26.30;99.90
37788;DHT22;23627;53.302;-6.362;2022-08-14T11:58:36;26.40;99.90
37788;DHT22;23627;53.302;-6.362;2022-08-14T12:01:07;26.50;99.90
37788;DHT22;23627;53.302;-6.362;2022-08-14T12:03:46;26.50;99.90
37788;DHT22;23627;53.302;-6.362;2022-08-14T12:06:42;26.60;99.90
37788;DHT22;23627;53.302;-6.362;2022-08-14T12:09:12;26.60;99.90
37788;DHT22;23627;53.302;-6.362;2022-08-14T12:11:55;26.70;99.90
37788;DHT22;23627;53.302;-6.362;2022-08-14T12:20:01;26.80;99.90
37788;DHT22;23627;53.302;-6.362;2022-08-14T12:22:39;26.80;99.90
37788;DHT22;23627;53.302;-6.362;2022-08-14T12:25:14;26.80;99.90
37788;DHT22;23627;53.302;-6.362;2022-08-14T12:27:45;26.70;99.90
37788;DHT22;23627;53.302;-6.362;2022-08-14T12:38:15;26.80;99.90
37788;DHT22;23627;53.302;-6.362;2022-08-14T12:40:51;26.90;99.90
37788;DHT22;23627;53.302;-6.362;2022-08-14T12:43:18;26.90;99.90
37788;DHT22;23627;53.302;-6.362;2022-08-14T12:45:50;26.90;99.90
37788;DHT22;23627;53.302;-6.362;2022-08-14T12:48:19;26.90;99.90
37788;DHT22;23627;53.302;-6.362;2022-08-14T12:50:46;26.90;99.90
37788;DHT22;23627;53.302;-6.362;2022-08-14T12:53:12;26.90;99.90
37788;DHT22;23627;53.302;-6.362;2022-08-14T12:55:39;27.00;99.90
37788;DHT22;23627;53.302;-6.362;2022-08-14T12:58:07;27.00;99.90
37788;DHT22;23627;53.302;-6.362;2022-08-14T13:00:38;27.10;99.90
37788;DHT22;23627;53.302;-6.362;2022-08-14T13:03:22;27.10;99.90
37788;DHT22;23627;53.302;-6.362;2022-08-14T13:05:48;27.10;99.90
37788;DHT22;23627;53.302;-6.362;2022-08-14T13:08:14;27.20;99.90
37788;DHT22;23627;53.302;-6.362;2022-08-14T13:10:41;27.20;99.90
37788;DHT22;23627;53.302;-6.362;2022-08-14T13:13:08;27.20;99.90
37788;DHT22;23627;53.302;-6.362;2022-08-14T13:15:35;27.10;99.90
37788;DHT22;23627;53.302;-6.362;2022-08-14T13:18:03;27.10;99.90
37788;DHT22;23627;53.302;-6.362;2022-08-14T13:20:29;27.00;99.90
37788;DHT22;23627;53.302;-6.362;2022-08-14T13:22:55;27.00;99.90
37788;DHT22;23627;53.302;-6.362;2022-08-14T13:25:25;27.00;99.90
37788;DHT22;23627;53.302;-6.362;2022-08-14T13:27:54;27.00;99.90
37788;DHT22;23627;53.302;-6.362;2022-08-14T13:30:22;27.00;99.90
37788;DHT22;23627;53.302;-6.362;2022-08-14T13:32:53;27.00;99.90
37788;DHT22;23627;53.302;-6.362;2022-08-14T13:35:20;27.10;99.90
37788;DHT22;23627;53.302;-6.362;2022-08-14T13:37:47;27.10;99.90
37788;DHT22;23627;53.302;-6.362;2022-08-14T13:40:15;27.20;99.90
37788;DHT22;23627;53.302;-6.362;2022-08-14T13:42:43;27.20;99.90
37788;DHT22;23627;53.302;-6.362;2022-08-14T13:45:11;27.30;99.90
37788;DHT22;23627;53.302;-6.362;2022-08-14T13:47:37;27.20;99.90
37788;DHT22;23627;53.302;-6.362;2022-08-14T13:50:05;27.20;99.90
37788;DHT22;23627;53.302;-6.362;2022-08-14T13:52:40;27.10;99.90
37788;DHT22;23627;53.302;-6.362;2022-08-14T13:55:07;27.00;99.90
37788;DHT22;23627;53.302;-6.362;2022-08-14T13:57:35;27.10;99.90
37788;DHT22;23627;53.302;-6.362;2022-08-14T14:00:07;27.10;99.90
37788;DHT22;23627;53.302;-6.362;2022-08-14T14:02:39;27.20;99.90
37788;DHT22;23627;53.302;-6.362;2022-08-14T14:05:06;27.10;99.90
37788;DHT22;23627;53.302;-6.362;2022-08-14T14:07:34;27.10;99.90
37788;DHT22;23627;53.302;-6.362;2022-08-14T14:10:02;27.10;99.90
37788;DHT22;23627;53.302;-6.362;2022-08-14T14:12:29;27.00;99.90
37788;DHT22;23627;53.302;-6.362;2022-08-14T14:14:57;26.90;99.90
37788;DHT22;23627;53.302;-6.362;2022-08-14T14:17:23;26.90;99.90
37788;DHT22;23627;53.302;-6.362;2022-08-14T14:19:53;26.90;99.90
37788;DHT22;23627;53.302;-6.362;2022-08-14T14:22:19;26.90;99.90
37788;DHT22;23627;53.302;-6.362;2022-08-14T14:24:45;26.80;99.90
37788;DHT22;23627;53.302;-6.362;2022-08-14T14:27:12;26.70;99.90
37788;DHT22;23627;53.302;-6.362;2022-08-14T14:29:49;26.70;99.90
37788;DHT22;23627;53.302;-6.362;2022-08-14T14:32:17;26.60;99.90
37788;DHT22;23627;53.302;-6.362;2022-08-14T14:34:43;26.60;99.90
37788;DHT22;23627;53.302;-6.362;2022-08-14T14:37:12;26.50;99.90
37788;DHT22;23627;53.302;-6.362;2022-08-14T14:39:40;26.50;99.90
37788;DHT22;23627;53.302;-6.362;2022-08-14T14:42:07;26.50;99.90
37788;DHT22;23627;53.302;-6.362;2022-08-14T14:44:36;26.50;99.90
37788;DHT22;23627;53.302;-6.362;2022-08-14T14:47:08;26.50;99.90
37788;DHT22;23627;53.302;-6.362;2022-08-14T14:49:34;26.50;99.90
37788;DHT22;23627;53.302;-6.362;2022-08-14T14:52:02;26.50;99.90
37788;DHT22;23627;53.302;-6.362;2022-08-14T14:54:31;26.50;99.90
37788;DHT22;23627;53.302;-6.362;2022-08-14T14:56:58;26.50;99.90
37788;DHT22;23627;53.302;-6.362;2022-08-14T14:59:25;26.40;99.90
37788;DHT22;23627;53.302;-6.362;2022-08-14T15:01:53;26.30;99.90
37788;DHT22;23627;53.302;-6.362;2022-08-14T15:04:24;26.30;99.90
37788;DHT22;23627;53.302;-6.362;2022-08-14T15:06:50;26.30;99.90
37788;DHT22;23627;53.302;-6.362;2022-08-14T15:09:17;26.20;99.90
37788;DHT22;23627;53.302;-6.362;2022-08-14T15:11:43;26.20;99.90
37788;DHT22;23627;53.302;-6.362;2022-08-14T15:14:08;26.10;99.90
37788;DHT22;23627;53.302;-6.362;2022-08-14T15:16:35;26.00;99.90
37788;DHT22;23627;53.302;-6.362;2022-08-14T15:19:00;26.00;99.90
37788;DHT22;23627;53.302;-6.362;2022-08-14T15:21:26;25.90;99.90
37788;DHT22;23627;53.302;-6.362;2022-08-14T15:23:52;25.90;99.90
37788;DHT22;23627;53.302;-6.362;2022-08-14T15:26:19;25.90;99.90
37788;DHT22;23627;53.302;-6.362;2022-08-14T15:28:45;25.90;99.90
37788;DHT22;23627;53.302;-6.362;2022-08-14T15:31:12;25.80;99.90
37788;DHT22;23627;53.302;-6.362;2022-08-14T15:33:38;25.80;99.90
37788;DHT22;23627;53.302;-6.362;2022-08-14T15:36:23;25.70;99.90
37788;DHT22;23627;53.302;-6.362;2022-08-14T15:38:50;25.60;99.90
37788;DHT22;23627;53.302;-6.362;2022-08-14T15:41:16;25.60;99.90
37788;DHT22;23627;53.302;-6.362;2022-08-14T15:43:42;25.40;99.90
37788;DHT22;23627;53.302;-6.362;2022-08-14T15:46:08;25.30;99.90
37788;DHT22;23627;53.302;-6.362;2022-08-14T15:48:34;25.30;99.90
37788;DHT22;23627;53.302;-6.362;2022-08-14T15:51:01;25.30;99.90
37788;DHT22;23627;53.302;-6.362;2022-08-14T15:53:28;25.20;99.90
37788;DHT22;23627;53.302;-6.362;2022-08-14T15:55:55;25.10;99.90
37788;DHT22;23627;53.302;-6.362;2022-08-14T15:58:23;25.00;99.90
37788;DHT22;23627;53.302;-6.362;2022-08-14T16:00:50;24.90;99.90
37788;DHT22;23627;53.302;-6.362;2022-08-14T16:03:35;24.90;99.90
37788;DHT22;23627;53.302;-6.362;2022-08-14T16:06:06;24.80;99.90
37788;DHT22;23627;53.302;-6.362;2022-08-14T16:08:32;24.70;99.90
37788;DHT22;23627;53.302;-6.362;2022-08-14T16:11:04;24.60;99.90
37788;DHT22;23627;53.302;-6.362;2022-08-14T16:13:31;24.70;99.90
37788;DHT22;23627;53.302;-6.362;2022-08-14T16:15:59;24.70;99.90
37788;DHT22;23627;53.302;-6.362;2022-08-14T16:18:26;24.70;99.90
37788;DHT22;23627;53.302;-6.362;2022-08-14T16:20:55;24.70;99.90